sensor_id;sensor_type;location;lat;lon;timestamp;P1;durP1;ratioP1;P2;durP2;ratioP2
58123;SDS011;46725;48.068;20.832;2022-12-24T00:01:26;135.93;;;45.38;;
58123;SDS011;46725;48.068;20.832;2022-12-24T00:03:52;134.68;;;44.63;;
58123;SDS011;46725;48.068;20.832;2022-12-24T00:06:20;130.65;;;45.90;;
58123;SDS011;46725;48.068;20.832;2022-12-24T00:08:46;131.13;;;43.17;;
58123;SDS011;46725;48.068;20.832;2022-12-24T00:11:13;158.38;;;49.10;;
58123;SDS011;46725;48.068;20.832;2022-12-24T00:13:39;150.93;;;47.67;;
58123;SDS011;46725;48.068;20.832;2022-12-24T00:16:05;144.45;;;48.70;;
58123;SDS011;46725;48.068;20.832;2022-12-24T00:18:31;146.23;;;48.28;;
58123;SDS011;46725;48.068;20.832;2022-12-24T00:20:57;155.68;;;47.30;;
58123;SDS011;46725;48.068;20.832;2022-12-24T00:23:23;141.40;;;41.70;;
58123;SDS011;46725;48.068;20.832;2022-12-24T00:25:49;119.53;;;40.70;;
58123;SDS011;46725;48.068;20.832;2022-12-24T00:28:15;148.88;;;40.03;;
58123;SDS011;46725;48.068;20.832;2022-12-24T00:30:42;116.65;;;38.00;;
58123;SDS011;46725;48.068;20.832;2022-12-24T00:33:08;128.50;;;36.10;;
58123;SDS011;46725;48.068;20.832;2022-12-24T00:35:35;125.18;;;33.50;;
58123;SDS011;46725;48.068;20.832;2022-12-24T00:38:01;105.88;;;31.17;;
58123;SDS011;46725;48.068;20.832;2022-12-24T00:40:28;102.20;;;32.10;;
58123;SDS011;46725;48.068;20.832;2022-12-24T00:42:54;100.28;;;30.52;;
58123;SDS011;46725;48.068;20.832;2022-12-24T00:45:20;110.50;;;31.17;;
58123;SDS011;46725;48.068;20.832;2022-12-24T00:47:47;97.28;;;31.13;;
58123;SDS011;46725;48.068;20.832;2022-12-24T00:50:13;102.70;;;29.98;;
58123;SDS011;46725;48.068;20.832;2022-12-24T00:52:39;104.55;;;29.38;;
58123;SDS011;46725;48.068;20.832;2022-12-24T00:55:06;100.68;;;29.48;;
58123;SDS011;46725;48.068;20.832;2022-12-24T00:57:32;122.32;;;32.13;;
58123;SDS011;46725;48.068;20.832;2022-12-24T00:59:58;101.95;;;28.98;;
58123;SDS011;46725;48.068;20.832;2022-12-24T01:02:27;91.55;;;28.73;;
58123;SDS011;46725;48.068;20.832;2022-12-24T01:04:53;102.03;;;29.10;;
58123;SDS011;46725;48.068;20.832;2022-12-24T01:07:35;110.15;;;29.45;;
58123;SDS011;46725;48.068;20.832;2022-12-24T01:10:02;104.90;;;28.65;;
58123;SDS011;46725;48.068;20.832;2022-12-24T01:12:28;84.30;;;27.05;;
58123;SDS011;46725;48.068;20.832;2022-12-24T01:14:54;90.55;;;25.23;;
58123;SDS011;46725;48.068;20.832;2022-12-24T01:17:20;86.68;;;26.55;;
58123;SDS011;46725;48.068;20.832;2022-12-24T01:19:47;86.72;;;25.67;;
58123;SDS011;46725;48.068;20.832;2022-12-24T01:22:13;89.03;;;24.33;;
58123;SDS011;46725;48.068;20.832;2022-12-24T01:24:39;101.15;;;25.65;;
58123;SDS011;46725;48.068;20.832;2022-12-24T01:27:06;113.03;;;26.02;;
58123;SDS011;46725;48.068;20.832;2022-12-24T01:29:32;81.03;;;24.33;;
58123;SDS011;46725;48.068;20.832;2022-12-24T01:31:58;67.40;;;22.65;;
58123;SDS011;46725;48.068;20.832;2022-12-24T01:34:24;80.55;;;23.50;;
58123;SDS011;46725;48.068;20.832;2022-12-24T01:36:50;71.93;;;22.25;;
58123;SDS011;46725;48.068;20.832;2022-12-24T01:39:16;74.53;;;23.30;;
58123;SDS011;46725;48.068;20.832;2022-12-24T01:41:42;68.13;;;20.92;;
58123;SDS011;46725;48.068;20.832;2022-12-24T01:44:28;73.40;;;22.98;;
58123;SDS011;46725;48.068;20.832;2022-12-24T01:47:02;71.35;;;23.10;;
58123;SDS011;46725;48.068;20.832;2022-12-24T01:49:29;63.53;;;21.60;;
58123;SDS011;46725;48.068;20.832;2022-12-24T01:52:06;67.45;;;22.27;;
58123;SDS011;46725;48.068;20.832;2022-12-24T01:54:38;64.00;;;21.45;;
58123;SDS011;46725;48.068;20.832;2022-12-24T01:57:10;70.32;;;21.88;;
58123;SDS011;46725;48.068;20.832;2022-12-24T01:59:38;71.18;;;21.85;;
58123;SDS011;46725;48.068;20.832;2022-12-24T02:02:06;70.25;;;21.92;;
58123;SDS011;46725;48.068;20.832;2022-12-24T02:07:01;68.07;;;21.75;;
58123;SDS011;46725;48.068;20.832;2022-12-24T02:09:27;66.22;;;21.25;;
58123;SDS011;46725;48.068;20.832;2022-12-24T02:11:54;63.90;;;21.02;;
58123;SDS011;46725;48.068;20.832;2022-12-24T02:14:20;65.55;;;20.48;;
58123;SDS011;46725;48.068;20.832;2022-12-24T02:16:57;60.97;;;19.92;;
58123;SDS011;46725;48.068;20.832;2022-12-24T02:21:58;63.17;;;21.60;;
58123;SDS011;46725;48.068;20.832;2022-12-24T02:35:02;70.65;;;22.92;;
58123;SDS011;46725;48.068;20.832;2022-12-24T02:37:37;58.58;;;21.92;;
58123;SDS011;46725;48.068;20.832;2022-12-24T02:42:34;60.97;;;21.33;;
58123;SDS011;46725;48.068;20.832;2022-12-24T02:45:03;59.30;;;22.02;;
58123;SDS011;46725;48.068;20.832;2022-12-24T02:47:30;59.58;;;21.00;;
58123;SDS011;46725;48.068;20.832;2022-12-24T02:49:57;50.10;;;19.88;;
58123;SDS011;46725;48.068;20.832;2022-12-24T02:52:29;50.13;;;20.00;;
58123;SDS011;46725;48.068;20.832;2022-12-24T02:54:56;59.92;;;21.30;;
58123;SDS011;46725;48.068;20.832;2022-12-24T03:00:02;53.97;;;21.90;;
58123;SDS011;46725;48.068;20.832;2022-12-24T03:02:41;56.15;;;21.05;;
58123;SDS011;46725;48.068;20.832;2022-12-24T03:05:17;56.75;;;20.08;;
58123;SDS011;46725;48.068;20.832;2022-12-24T03:13:03;53.95;;;20.25;;
58123;SDS011;46725;48.068;20.832;2022-12-24T03:15:31;58.05;;;19.63;;
58123;SDS011;46725;48.068;20.832;2022-12-24T03:17:58;50.33;;;18.40;;
58123;SDS011;46725;48.068;20.832;2022-12-24T03:20:26;54.42;;;20.40;;
58123;SDS011;46725;48.068;20.832;2022-12-24T03:22:55;54.38;;;19.65;;
58123;SDS011;46725;48.068;20.832;2022-12-24T03:25:22;49.97;;;20.15;;
58123;SDS011;46725;48.068;20.832;2022-12-24T03:27:49;48.95;;;20.65;;
58123;SDS011;46725;48.068;20.832;2022-12-24T03:30:15;53.83;;;20.42;;
58123;SDS011;46725;48.068;20.832;2022-12-24T03:32:42;57.42;;;21.25;;
58123;SDS011;46725;48.068;20.832;2022-12-24T03:35:09;53.17;;;20.42;;
58123;SDS011;46725;48.068;20.832;2022-12-24T03:37:35;61.35;;;21.00;;
58123;SDS011;46725;48.068;20.832;2022-12-24T03:40:02;61.15;;;22.10;;
58123;SDS011;46725;48.068;20.832;2022-12-24T03:42:28;56.85;;;20.77;;
58123;SDS011;46725;48.068;20.832;2022-12-24T03:44:54;61.05;;;22.75;;
58123;SDS011;46725;48.068;20.832;2022-12-24T03:47:20;57.83;;;22.83;;
58123;SDS011;46725;48.068;20.832;2022-12-24T03:49:46;64.07;;;22.45;;
58123;SDS011;46725;48.068;20.832;2022-12-24T03:52:12;60.55;;;21.98;;
58123;SDS011;46725;48.068;20.832;2022-12-24T03:54:38;60.90;;;22.13;;
58123;SDS011;46725;48.068;20.832;2022-12-24T03:57:04;61.33;;;21.92;;
58123;SDS011;46725;48.068;20.832;2022-12-24T03:59:30;63.15;;;23.38;;
58123;SDS011;46725;48.068;20.832;2022-12-24T04:01:56;60.10;;;23.48;;
58123;SDS011;46725;48.068;20.832;2022-12-24T04:04:23;61.33;;;22.17;;
58123;SDS011;46725;48.068;20.832;2022-12-24T04:06:49;65.70;;;22.42;;
58123;SDS011;46725;48.068;20.832;2022-12-24T04:09:15;63.20;;;21.67;;
58123;SDS011;46725;48.068;20.832;2022-12-24T04:11:41;76.93;;;23.65;;
58123;SDS011;46725;48.068;20.832;2022-12-24T04:14:07;64.70;;;21.60;;
58123;SDS011;46725;48.068;20.832;2022-12-24T04:16:33;66.72;;;22.38;;
58123;SDS011;46725;48.068;20.832;2022-12-24T04:18:59;63.13;;;23.27;;
58123;SDS011;46725;48.068;20.832;2022-12-24T04:21:25;61.55;;;22.58;;
58123;SDS011;46725;48.068;20.832;2022-12-24T04:23:51;60.25;;;23.63;;
58123;SDS011;46725;48.068;20.832;2022-12-24T04:26:17;58.92;;;23.92;;
58123;SDS011;46725;48.068;20.832;2022-12-24T04:28:43;59.47;;;22.52;;
58123;SDS011;46725;48.068;20.832;2022-12-24T04:31:11;74.45;;;25.77;;
58123;SDS011;46725;48.068;20.832;2022-12-24T04:33:37;78.35;;;25.52;;
58123;SDS011;46725;48.068;20.832;2022-12-24T04:36:04;66.95;;;25.52;;
58123;SDS011;46725;48.068;20.832;2022-12-24T04:38:31;60.60;;;24.17;;
58123;SDS011;46725;48.068;20.832;2022-12-24T04:41:02;63.53;;;22.98;;
58123;SDS011;46725;48.068;20.832;2022-12-24T04:43:28;57.60;;;24.52;;
58123;SDS011;46725;48.068;20.832;2022-12-24T04:45:55;70.15;;;26.35;;
58123;SDS011;46725;48.068;20.832;2022-12-24T04:48:21;65.80;;;25.23;;
58123;SDS011;46725;48.068;20.832;2022-12-24T04:50:47;59.42;;;24.45;;
58123;SDS011;46725;48.068;20.832;2022-12-24T04:53:13;75.75;;;28.42;;
58123;SDS011;46725;48.068;20.832;2022-12-24T04:55:45;73.55;;;27.05;;
58123;SDS011;46725;48.068;20.832;2022-12-24T05:00:38;75.95;;;24.55;;
58123;SDS011;46725;48.068;20.832;2022-12-24T05:03:04;83.68;;;24.77;;
58123;SDS011;46725;48.068;20.832;2022-12-24T05:05:30;87.22;;;27.75;;
58123;SDS011;46725;48.068;20.832;2022-12-24T05:07:57;82.25;;;26.80;;
58123;SDS011;46725;48.068;20.832;2022-12-24T05:10:23;76.95;;;25.60;;
58123;SDS011;46725;48.068;20.832;2022-12-24T05:12:49;82.35;;;26.67;;
58123;SDS011;46725;48.068;20.832;2022-12-24T05:15:15;77.68;;;26.13;;
58123;SDS011;46725;48.068;20.832;2022-12-24T05:17:41;74.97;;;27.05;;
58123;SDS011;46725;48.068;20.832;2022-12-24T05:20:07;74.28;;;26.80;;
58123;SDS011;46725;48.068;20.832;2022-12-24T05:22:33;71.78;;;28.10;;
58123;SDS011;46725;48.068;20.832;2022-12-24T05:25:18;77.30;;;27.75;;
58123;SDS011;46725;48.068;20.832;2022-12-24T05:28:02;65.28;;;26.98;;
58123;SDS011;46725;48.068;20.832;2022-12-24T05:30:28;65.65;;;27.05;;
58123;SDS011;46725;48.068;20.832;2022-12-24T05:32:55;67.70;;;27.58;;
58123;SDS011;46725;48.068;20.832;2022-12-24T05:35:21;67.32;;;28.15;;
58123;SDS011;46725;48.068;20.832;2022-12-24T05:37:47;67.05;;;29.17;;
58123;SDS011;46725;48.068;20.832;2022-12-24T05:40:13;69.95;;;29.48;;
58123;SDS011;46725;48.068;20.832;2022-12-24T05:42:39;58.92;;;26.58;;
58123;SDS011;46725;48.068;20.832;2022-12-24T05:45:05;59.30;;;26.20;;
58123;SDS011;46725;48.068;20.832;2022-12-24T05:47:31;54.28;;;26.25;;
58123;SDS011;46725;48.068;20.832;2022-12-24T05:49:58;62.10;;;26.88;;
58123;SDS011;46725;48.068;20.832;2022-12-24T05:52:24;62.80;;;28.38;;
58123;SDS011;46725;48.068;20.832;2022-12-24T05:54:50;77.63;;;31.48;;
58123;SDS011;46725;48.068;20.832;2022-12-24T05:57:16;64.20;;;28.15;;
58123;SDS011;46725;48.068;20.832;2022-12-24T05:59:42;63.83;;;28.25;;
58123;SDS011;46725;48.068;20.832;2022-12-24T06:02:08;79.28;;;32.80;;
58123;SDS011;46725;48.068;20.832;2022-12-24T06:04:34;81.80;;;32.25;;
58123;SDS011;46725;48.068;20.832;2022-12-24T06:07:00;64.30;;;30.38;;
58123;SDS011;46725;48.068;20.832;2022-12-24T06:09:26;64.25;;;26.55;;
58123;SDS011;46725;48.068;20.832;2022-12-24T06:11:52;50.03;;;25.00;;
58123;SDS011;46725;48.068;20.832;2022-12-24T06:14:18;46.88;;;23.35;;
58123;SDS011;46725;48.068;20.832;2022-12-24T06:16:44;53.90;;;25.40;;
58123;SDS011;46725;48.068;20.832;2022-12-24T06:19:10;74.97;;;37.58;;
58123;SDS011;46725;48.068;20.832;2022-12-24T06:21:36;75.15;;;35.80;;
58123;SDS011;46725;48.068;20.832;2022-12-24T06:24:03;68.20;;;30.95;;
58123;SDS011;46725;48.068;20.832;2022-12-24T06:26:29;60.13;;;28.42;;
58123;SDS011;46725;48.068;20.832;2022-12-24T06:28:55;69.88;;;32.35;;
58123;SDS011;46725;48.068;20.832;2022-12-24T06:31:21;69.72;;;32.55;;
58123;SDS011;46725;48.068;20.832;2022-12-24T06:33:48;76.60;;;34.88;;
58123;SDS011;46725;48.068;20.832;2022-12-24T06:36:15;73.30;;;35.90;;
58123;SDS011;46725;48.068;20.832;2022-12-24T06:38:42;79.80;;;34.72;;
58123;SDS011;46725;48.068;20.832;2022-12-24T06:41:09;102.03;;;41.58;;
58123;SDS011;46725;48.068;20.832;2022-12-24T06:43:35;82.82;;;39.20;;
58123;SDS011;46725;48.068;20.832;2022-12-24T06:46:03;103.68;;;50.45;;
58123;SDS011;46725;48.068;20.832;2022-12-24T06:48:29;81.88;;;40.40;;
58123;SDS011;46725;48.068;20.832;2022-12-24T06:50:56;66.93;;;32.38;;
58123;SDS011;46725;48.068;20.832;2022-12-24T06:53:22;57.28;;;30.30;;
58123;SDS011;46725;48.068;20.832;2022-12-24T06:55:48;60.42;;;28.40;;
58123;SDS011;46725;48.068;20.832;2022-12-24T06:58:14;59.50;;;26.95;;
58123;SDS011;46725;48.068;20.832;2022-12-24T07:00:40;61.45;;;30.15;;
58123;SDS011;46725;48.068;20.832;2022-12-24T07:03:06;61.63;;;32.78;;
58123;SDS011;46725;48.068;20.832;2022-12-24T07:05:32;66.63;;;31.60;;
58123;SDS011;46725;48.068;20.832;2022-12-24T07:07:58;69.20;;;33.88;;
58123;SDS011;46725;48.068;20.832;2022-12-24T07:10:24;59.10;;;29.27;;
58123;SDS011;46725;48.068;20.832;2022-12-24T07:12:50;54.70;;;25.63;;
58123;SDS011;46725;48.068;20.832;2022-12-24T07:15:16;55.58;;;25.20;;
58123;SDS011;46725;48.068;20.832;2022-12-24T07:17:42;99.22;;;41.53;;
58123;SDS011;46725;48.068;20.832;2022-12-24T07:20:10;94.38;;;40.65;;
58123;SDS011;46725;48.068;20.832;2022-12-24T07:22:37;78.38;;;34.60;;
58123;SDS011;46725;48.068;20.832;2022-12-24T07:25:03;65.00;;;32.55;;
58123;SDS011;46725;48.068;20.832;2022-12-24T07:27:30;72.50;;;31.23;;
58123;SDS011;46725;48.068;20.832;2022-12-24T07:29:56;64.45;;;31.02;;
58123;SDS011;46725;48.068;20.832;2022-12-24T07:32:22;64.60;;;31.80;;
58123;SDS011;46725;48.068;20.832;2022-12-24T07:34:48;57.15;;;28.73;;
58123;SDS011;46725;48.068;20.832;2022-12-24T07:37:14;53.95;;;26.30;;
58123;SDS011;46725;48.068;20.832;2022-12-24T07:39:40;52.35;;;26.33;;
58123;SDS011;46725;48.068;20.832;2022-12-24T07:42:06;50.13;;;25.33;;
58123;SDS011;46725;48.068;20.832;2022-12-24T07:44:32;59.38;;;29.25;;
58123;SDS011;46725;48.068;20.832;2022-12-24T07:46:58;63.45;;;30.60;;
58123;SDS011;46725;48.068;20.832;2022-12-24T07:49:25;61.22;;;31.83;;
58123;SDS011;46725;48.068;20.832;2022-12-24T07:51:51;51.60;;;26.60;;
58123;SDS011;46725;48.068;20.832;2022-12-24T07:54:17;51.75;;;26.35;;
58123;SDS011;46725;48.068;20.832;2022-12-24T07:56:43;51.85;;;26.20;;
58123;SDS011;46725;48.068;20.832;2022-12-24T07:59:12;50.33;;;25.67;;
58123;SDS011;46725;48.068;20.832;2022-12-24T08:01:38;50.63;;;26.10;;
58123;SDS011;46725;48.068;20.832;2022-12-24T08:04:04;56.08;;;26.83;;
58123;SDS011;46725;48.068;20.832;2022-12-24T08:06:30;47.90;;;25.92;;
58123;SDS011;46725;48.068;20.832;2022-12-24T08:08:57;47.97;;;25.42;;
58123;SDS011;46725;48.068;20.832;2022-12-24T08:11:23;49.95;;;27.30;;
58123;SDS011;46725;48.068;20.832;2022-12-24T08:13:49;80.15;;;38.60;;
58123;SDS011;46725;48.068;20.832;2022-12-24T08:16:15;83.03;;;41.85;;
58123;SDS011;46725;48.068;20.832;2022-12-24T08:18:41;79.82;;;40.75;;
58123;SDS011;46725;48.068;20.832;2022-12-24T08:21:07;72.72;;;36.30;;
58123;SDS011;46725;48.068;20.832;2022-12-24T08:23:34;64.43;;;34.25;;
58123;SDS011;46725;48.068;20.832;2022-12-24T08:26:01;151.00;;;71.03;;
58123;SDS011;46725;48.068;20.832;2022-12-24T08:28:27;97.22;;;47.65;;
58123;SDS011;46725;48.068;20.832;2022-12-24T08:30:53;62.97;;;35.15;;
58123;SDS011;46725;48.068;20.832;2022-12-24T08:33:19;55.88;;;31.20;;
58123;SDS011;46725;48.068;20.832;2022-12-24T08:35:50;51.97;;;26.38;;
58123;SDS011;46725;48.068;20.832;2022-12-24T08:38:16;54.05;;;28.67;;
58123;SDS011;46725;48.068;20.832;2022-12-24T08:40:43;55.65;;;30.75;;
58123;SDS011;46725;48.068;20.832;2022-12-24T08:43:11;62.55;;;33.90;;
58123;SDS011;46725;48.068;20.832;2022-12-24T08:45:37;55.83;;;29.85;;
58123;SDS011;46725;48.068;20.832;2022-12-24T08:48:04;63.42;;;31.00;;
58123;SDS011;46725;48.068;20.832;2022-12-24T08:50:30;58.70;;;28.52;;
58123;SDS011;46725;48.068;20.832;2022-12-24T08:52:56;57.83;;;30.40;;
58123;SDS011;46725;48.068;20.832;2022-12-24T08:55:22;159.88;;;86.85;;
58123;SDS011;46725;48.068;20.832;2022-12-24T08:57:48;213.70;;;121.18;;
58123;SDS011;46725;48.068;20.832;2022-12-24T09:00:15;127.47;;;73.75;;
58123;SDS011;46725;48.068;20.832;2022-12-24T09:02:41;82.25;;;43.80;;
58123;SDS011;46725;48.068;20.832;2022-12-24T09:05:07;55.15;;;27.85;;
58123;SDS011;46725;48.068;20.832;2022-12-24T09:07:33;52.72;;;29.48;;
58123;SDS011;46725;48.068;20.832;2022-12-24T09:09:59;52.60;;;28.45;;
58123;SDS011;46725;48.068;20.832;2022-12-24T09:12:25;56.60;;;29.92;;
58123;SDS011;46725;48.068;20.832;2022-12-24T09:14:53;47.17;;;23.60;;
58123;SDS011;46725;48.068;20.832;2022-12-24T09:17:19;43.97;;;24.48;;
58123;SDS011;46725;48.068;20.832;2022-12-24T09:19:46;53.45;;;26.15;;
58123;SDS011;46725;48.068;20.832;2022-12-24T09:22:12;49.65;;;25.85;;
58123;SDS011;46725;48.068;20.832;2022-12-24T09:24:38;43.05;;;24.33;;
58123;SDS011;46725;48.068;20.832;2022-12-24T09:27:05;50.95;;;26.10;;
58123;SDS011;46725;48.068;20.832;2022-12-24T09:29:31;48.60;;;25.77;;
58123;SDS011;46725;48.068;20.832;2022-12-24T09:31:57;55.88;;;28.98;;
58123;SDS011;46725;48.068;20.832;2022-12-24T09:34:23;58.00;;;30.10;;
58123;SDS011;46725;48.068;20.832;2022-12-24T09:36:49;63.50;;;31.75;;
58123;SDS011;46725;48.068;20.832;2022-12-24T09:39:18;58.67;;;29.85;;
58123;SDS011;46725;48.068;20.832;2022-12-24T09:44:19;72.05;;;33.92;;
58123;SDS011;46725;48.068;20.832;2022-12-24T09:46:46;64.45;;;30.67;;
58123;SDS011;46725;48.068;20.832;2022-12-24T09:49:23;71.10;;;33.63;;
58123;SDS011;46725;48.068;20.832;2022-12-24T09:54:26;79.70;;;32.88;;
58123;SDS011;46725;48.068;20.832;2022-12-24T09:56:53;79.90;;;35.92;;
58123;SDS011;46725;48.068;20.832;2022-12-24T09:59:22;78.70;;;35.15;;
58123;SDS011;46725;48.068;20.832;2022-12-24T10:01:50;80.78;;;36.40;;
58123;SDS011;46725;48.068;20.832;2022-12-24T10:04:18;82.57;;;35.95;;
58123;SDS011;46725;48.068;20.832;2022-12-24T10:11:59;96.00;;;41.45;;
58123;SDS011;46725;48.068;20.832;2022-12-24T10:22:12;82.13;;;38.60;;
58123;SDS011;46725;48.068;20.832;2022-12-24T10:27:20;92.18;;;42.80;;
58123;SDS011;46725;48.068;20.832;2022-12-24T10:29:50;83.25;;;39.20;;
58123;SDS011;46725;48.068;20.832;2022-12-24T10:32:21;80.00;;;37.58;;
58123;SDS011;46725;48.068;20.832;2022-12-24T10:35:31;68.72;;;36.42;;
58123;SDS011;46725;48.068;20.832;2022-12-24T10:37:37;72.93;;;33.08;;
58123;SDS011;46725;48.068;20.832;2022-12-24T10:40:05;71.85;;;33.53;;
58123;SDS011;46725;48.068;20.832;2022-12-24T10:42:35;78.50;;;36.47;;
58123;SDS011;46725;48.068;20.832;2022-12-24T10:45:04;97.15;;;43.03;;
58123;SDS011;46725;48.068;20.832;2022-12-24T10:47:32;80.22;;;37.55;;
58123;SDS011;46725;48.068;20.832;2022-12-24T10:50:33;78.22;;;37.28;;
58123;SDS011;46725;48.068;20.832;2022-12-24T10:52:50;75.30;;;36.15;;
58123;SDS011;46725;48.068;20.832;2022-12-24T10:57:44;73.82;;;34.60;;
58123;SDS011;46725;48.068;20.832;2022-12-24T11:00:22;96.03;;;41.45;;
58123;SDS011;46725;48.068;20.832;2022-12-24T11:02:48;82.00;;;38.50;;
58123;SDS011;46725;48.068;20.832;2022-12-24T11:05:27;83.93;;;34.78;;
58123;SDS011;46725;48.068;20.832;2022-12-24T11:08:03;89.85;;;37.55;;
58123;SDS011;46725;48.068;20.832;2022-12-24T11:10:30;89.78;;;38.92;;
58123;SDS011;46725;48.068;20.832;2022-12-24T11:12:57;80.95;;;37.22;;
58123;SDS011;46725;48.068;20.832;2022-12-24T11:15:31;82.03;;;35.10;;
58123;SDS011;46725;48.068;20.832;2022-12-24T11:18:04;72.60;;;33.70;;
58123;SDS011;46725;48.068;20.832;2022-12-24T11:20:33;120.53;;;57.50;;
58123;SDS011;46725;48.068;20.832;2022-12-24T11:22:59;104.30;;;50.63;;
58123;SDS011;46725;48.068;20.832;2022-12-24T11:25:27;104.55;;;45.53;;
58123;SDS011;46725;48.068;20.832;2022-12-24T11:27:56;376.30;;;164.50;;
58123;SDS011;46725;48.068;20.832;2022-12-24T11:32:49;117.50;;;56.97;;
58123;SDS011;46725;48.068;20.832;2022-12-24T11:35:17;126.80;;;60.90;;
58123;SDS011;46725;48.068;20.832;2022-12-24T11:37:46;115.07;;;60.70;;
58123;SDS011;46725;48.068;20.832;2022-12-24T11:40:21;88.40;;;42.30;;
58123;SDS011;46725;48.068;20.832;2022-12-24T11:42:50;91.55;;;44.20;;
58123;SDS011;46725;48.068;20.832;2022-12-24T11:45:22;104.70;;;53.13;;
58123;SDS011;46725;48.068;20.832;2022-12-24T11:47:50;102.50;;;55.55;;
58123;SDS011;46725;48.068;20.832;2022-12-24T11:52:58;82.43;;;41.60;;
58123;SDS011;46725;48.068;20.832;2022-12-24T11:58:03;84.80;;;44.97;;
58123;SDS011;46725;48.068;20.832;2022-12-24T12:00:30;83.65;;;42.78;;
58123;SDS011;46725;48.068;20.832;2022-12-24T12:02:57;82.72;;;42.95;;
58123;SDS011;46725;48.068;20.832;2022-12-24T12:05:26;93.07;;;47.47;;
58123;SDS011;46725;48.068;20.832;2022-12-24T12:07:54;84.95;;;44.85;;
58123;SDS011;46725;48.068;20.832;2022-12-24T12:10:22;111.03;;;60.58;;
58123;SDS011;46725;48.068;20.832;2022-12-24T12:15:26;113.22;;;60.17;;
58123;SDS011;46725;48.068;20.832;2022-12-24T12:18:02;93.03;;;47.78;;
58123;SDS011;46725;48.068;20.832;2022-12-24T12:20:44;106.10;;;59.10;;
58123;SDS011;46725;48.068;20.832;2022-12-24T12:23:15;77.47;;;37.70;;
58123;SDS011;46725;48.068;20.832;2022-12-24T12:25:46;71.32;;;35.10;;
58123;SDS011;46725;48.068;20.832;2022-12-24T12:28:25;163.15;;;77.03;;
58123;SDS011;46725;48.068;20.832;2022-12-24T12:31:40;68.97;;;35.20;;
58123;SDS011;46725;48.068;20.832;2022-12-24T12:33:44;68.03;;;29.50;;
58123;SDS011;46725;48.068;20.832;2022-12-24T12:36:12;64.93;;;30.08;;
58123;SDS011;46725;48.068;20.832;2022-12-24T12:38:40;60.60;;;28.77;;
58123;SDS011;46725;48.068;20.832;2022-12-24T12:41:13;59.50;;;26.58;;
58123;SDS011;46725;48.068;20.832;2022-12-24T12:56:45;66.32;;;32.85;;
58123;SDS011;46725;48.068;20.832;2022-12-24T12:59:14;60.13;;;31.40;;
58123;SDS011;46725;48.068;20.832;2022-12-24T13:01:45;61.97;;;28.65;;
58123;SDS011;46725;48.068;20.832;2022-12-24T13:22:12;81.68;;;33.03;;
58123;SDS011;46725;48.068;20.832;2022-12-24T13:24:39;92.93;;;33.35;;
58123;SDS011;46725;48.068;20.832;2022-12-24T13:27:16;100.22;;;35.83;;
58123;SDS011;46725;48.068;20.832;2022-12-24T13:29:56;111.30;;;36.78;;
58123;SDS011;46725;48.068;20.832;2022-12-24T13:34:50;164.18;;;34.22;;
58123;SDS011;46725;48.068;20.832;2022-12-24T13:37:18;132.95;;;31.13;;
58123;SDS011;46725;48.068;20.832;2022-12-24T13:47:57;127.05;;;43.28;;
58123;SDS011;46725;48.068;20.832;2022-12-24T13:50:28;201.13;;;46.15;;
58123;SDS011;46725;48.068;20.832;2022-12-24T13:52:59;153.60;;;54.08;;
58123;SDS011;46725;48.068;20.832;2022-12-24T13:55:25;161.63;;;55.63;;
58123;SDS011;46725;48.068;20.832;2022-12-24T13:57:53;153.18;;;55.33;;
58123;SDS011;46725;48.068;20.832;2022-12-24T14:00:26;166.73;;;57.55;;
58123;SDS011;46725;48.068;20.832;2022-12-24T14:03:01;150.77;;;45.67;;
58123;SDS011;46725;48.068;20.832;2022-12-24T14:08:04;247.90;;;44.85;;
58123;SDS011;46725;48.068;20.832;2022-12-24T14:10:38;225.30;;;42.25;;
58123;SDS011;46725;48.068;20.832;2022-12-24T14:13:04;161.60;;;42.95;;
58123;SDS011;46725;48.068;20.832;2022-12-24T14:18:38;233.20;;;58.60;;
58123;SDS011;46725;48.068;20.832;2022-12-24T14:21:05;236.25;;;54.13;;
58123;SDS011;46725;48.068;20.832;2022-12-24T14:23:36;256.45;;;59.35;;
58123;SDS011;46725;48.068;20.832;2022-12-24T14:26:08;254.60;;;59.85;;
58123;SDS011;46725;48.068;20.832;2022-12-24T14:28:38;231.68;;;60.22;;
58123;SDS011;46725;48.068;20.832;2022-12-24T14:31:10;227.82;;;71.18;;
58123;SDS011;46725;48.068;20.832;2022-12-24T14:33:38;196.25;;;64.20;;
58123;SDS011;46725;48.068;20.832;2022-12-24T14:36:04;135.48;;;42.63;;
58123;SDS011;46725;48.068;20.832;2022-12-24T14:38:31;85.95;;;30.75;;
58123;SDS011;46725;48.068;20.832;2022-12-24T14:43:51;110.07;;;23.65;;
58123;SDS011;46725;48.068;20.832;2022-12-24T14:46:23;79.30;;;22.02;;
58123;SDS011;46725;48.068;20.832;2022-12-24T14:48:54;145.85;;;41.65;;
58123;SDS011;46725;48.068;20.832;2022-12-24T14:51:24;170.13;;;50.92;;
58123;SDS011;46725;48.068;20.832;2022-12-24T14:56:30;112.50;;;43.30;;
58123;SDS011;46725;48.068;20.832;2022-12-24T14:58:56;107.68;;;47.38;;
58123;SDS011;46725;48.068;20.832;2022-12-24T15:01:29;238.88;;;48.78;;
58123;SDS011;46725;48.068;20.832;2022-12-24T15:04:15;126.47;;;47.05;;
58123;SDS011;46725;48.068;20.832;2022-12-24T15:06:45;109.03;;;42.60;;
58123;SDS011;46725;48.068;20.832;2022-12-24T15:09:17;174.07;;;48.83;;
58123;SDS011;46725;48.068;20.832;2022-12-24T15:11:44;115.53;;;48.28;;
58123;SDS011;46725;48.068;20.832;2022-12-24T15:14:11;104.40;;;47.30;;
58123;SDS011;46725;48.068;20.832;2022-12-24T15:16:38;149.10;;;64.82;;
58123;SDS011;46725;48.068;20.832;2022-12-24T15:19:06;147.23;;;68.57;;
58123;SDS011;46725;48.068;20.832;2022-12-24T15:21:33;174.85;;;71.43;;
58123;SDS011;46725;48.068;20.832;2022-12-24T15:24:01;143.68;;;71.88;;
58123;SDS011;46725;48.068;20.832;2022-12-24T15:26:29;129.75;;;63.00;;
58123;SDS011;46725;48.068;20.832;2022-12-24T15:28:56;149.23;;;71.38;;
58123;SDS011;46725;48.068;20.832;2022-12-24T15:31:23;102.78;;;51.83;;
58123;SDS011;46725;48.068;20.832;2022-12-24T15:33:51;20.27;;;10.13;;
58123;SDS011;46725;48.068;20.832;2022-12-24T15:36:33;17.90;;;7.38;;
58123;SDS011;46725;48.068;20.832;2022-12-24T15:41:27;10.35;;;4.45;;
58123;SDS011;46725;48.068;20.832;2022-12-24T15:43:58;9.90;;;3.80;;
58123;SDS011;46725;48.068;20.832;2022-12-24T15:46:25;14.30;;;4.53;;
58123;SDS011;46725;48.068;20.832;2022-12-24T15:48:55;7.20;;;3.88;;
58123;SDS011;46725;48.068;20.832;2022-12-24T15:51:26;7.43;;;2.90;;
58123;SDS011;46725;48.068;20.832;2022-12-24T15:53:58;10.63;;;4.05;;
58123;SDS011;46725;48.068;20.832;2022-12-24T15:56:33;7.68;;;3.85;;
58123;SDS011;46725;48.068;20.832;2022-12-24T16:01:38;13.57;;;7.13;;
58123;SDS011;46725;48.068;20.832;2022-12-24T16:04:14;16.85;;;7.30;;
58123;SDS011;46725;48.068;20.832;2022-12-24T16:06:56;11.25;;;5.70;;
58123;SDS011;46725;48.068;20.832;2022-12-24T16:09:38;10.60;;;4.78;;
58123;SDS011;46725;48.068;20.832;2022-12-24T16:12:19;11.40;;;4.68;;